Time;durP1;ratioP1;P1;durP2;ratioP2;P2;SDS_P1;SDS_P2;PMS_P1;PMS_P2;Temp;Humidity;BMP_temperature;BMP_pressure;BME280_temperature;BME280_humidity;BME280_pressure;Samples;Min_cycle;Max_cycle;Signal;HPM_P1;HPM_P2
2021/04/11 00:02:10;;;;;;;5.07;4.57;;;14.10;26.50;;;;;;10451622;28;20316;-69
2021/04/11 00:07:14;;;;;;;5.40;4.90;;;14.00;26.30;;;;;;10449208;28;20240;-69
2021/04/11 00:12:17;;;;;;;4.90;4.50;;;14.00;26.30;;;;;;10447652;28;20228;-69
2021/04/11 00:17:19;;;;;;;4.50;4.10;;;14.00;26.50;;;;;;10447947;28;20316;-69
2021/04/11 00:22:21;;;;;;;4.50;4.10;;;13.90;26.50;;;;;;10446053;28;20237;-69
2021/04/11 00:27:24;;;;;;;5.07;4.50;;;13.90;26.60;;;;;;10446931;28;20228;-69
2021/04/11 00:32:26;;;;;;;5.23;4.17;;;13.80;26.50;;;;;;10450493;28;20607;-69
2021/04/11 00:37:29;;;;;;;4.20;3.80;;;13.80;26.30;;;;;;10446812;28;20312;-69
2021/04/11 00:42:35;;;;;;;4.33;3.93;;;13.80;26.40;;;;;;10447563;28;20249;-69
2021/04/11 00:47:38;;;;;;;4.13;3.73;;;13.80;26.80;;;;;;10447589;28;20233;-69
2021/04/11 00:52:41;;;;;;;4.30;3.90;;;13.80;26.50;;;;;;10447860;28;20233;-69
2021/04/11 00:57:46;;;;;;;4.13;3.83;;;13.80;26.50;;;;;;10445066;28;20663;-69
2021/04/11 01:02:48;;;;;;;3.80;3.40;;;13.80;26.20;;;;;;10447694;28;20271;-69
2021/04/11 01:07:51;;;;;;;4.63;3.70;;;13.70;26.20;;;;;;10445274;28;20225;-69
2021/04/11 01:12:55;;;;;;;3.77;3.30;;;13.70;26.30;;;;;;10441852;28;20656;-69
2021/04/11 01:17:58;;;;;;;4.00;3.47;;;13.70;26.40;;;;;;10441189;28;20264;-69
2021/04/11 01:23:12;;;;;;;4.57;3.80;;;13.70;26.30;;;;;;10440179;28;20236;-69
2021/04/11 01:28:18;;;;;;;3.60;3.30;;;13.60;26.70;;;;;;10441070;28;20355;-69
2021/04/11 01:33:22;;;;;;;4.00;3.70;;;13.60;26.50;;;;;;10449065;28;20855;-69
2021/04/11 01:38:25;;;;;;;3.77;3.47;;;13.60;26.50;;;;;;10444767;28;20226;-69
2021/04/11 01:43:30;;;;;;;3.93;3.20;;;13.60;26.50;;;;;;10446938;28;20239;-69
2021/04/11 01:48:33;;;;;;;3.70;3.40;;;13.50;26.50;;;;;;10441501;28;20307;-69
2021/04/11 01:53:36;;;;;;;4.27;3.87;;;13.50;26.50;;;;;;10444863;28;20674;-69
2021/04/11 01:58:41;;;;;;;4.27;3.87;;;13.50;26.60;;;;;;10445386;28;20225;-69
2021/04/11 02:03:43;;;;;;;3.83;3.50;;;13.40;26.60;;;;;;10446461;28;20708;-69
2021/04/11 02:08:48;;;;;;;3.60;3.30;;;13.40;26.60;;;;;;10446225;28;20312;-69
2021/04/11 02:13:52;;;;;;;3.40;3.10;;;13.40;26.80;;;;;;10445155;28;20256;-69
2021/04/11 02:19:01;;;;;;;4.80;3.70;;;13.30;26.80;;;;;;10451866;28;20307;-69
2021/04/11 02:24:04;;;;;;;4.50;3.40;;;13.30;27.10;;;;;;10452886;28;20263;-70
2021/04/11 02:29:09;;;;;;;3.60;3.30;;;13.30;26.70;;;;;;10452516;28;20760;-69
2021/04/11 02:34:14;;;;;;;3.60;3.30;;;13.20;26.90;;;;;;10449157;28;20327;-69
2021/04/11 02:39:21;;;;;;;3.50;3.20;;;13.10;27.00;;;;;;10452846;28;20740;-69
2021/04/11 02:44:25;;;;;;;4.30;3.90;;;13.20;27.20;;;;;;10452373;28;20688;-69
2021/04/11 02:49:27;;;;;;;3.27;2.87;;;13.10;27.00;;;;;;10448749;28;21138;-69
2021/04/11 02:54:30;;;;;;;3.93;3.63;;;13.10;26.90;;;;;;10449694;28;20313;-69
2021/04/11 02:59:33;;;;;;;4.43;3.73;;;13.00;27.10;;;;;;10450432;28;20305;-72
2021/04/11 03:04:35;;;;;;;5.00;3.80;;;13.00;27.00;;;;;;10452201;28;20324;-72
2021/04/11 03:09:43;;;;;;;4.47;3.67;;;13.00;27.10;;;;;;10450439;28;20225;-69
2021/04/11 03:14:47;;;;;;;4.93;4.00;;;12.90;27.40;;;;;;10450848;28;20316;-69
2021/04/11 03:19:53;;;;;;;4.33;3.93;;;12.90;27.40;;;;;;10445803;28;20525;-69
2021/04/11 03:24:56;;;;;;;4.13;3.73;;;12.90;27.40;;;;;;10443657;28;20231;-69
2021/04/11 03:30:05;;;;;;;4.30;3.90;;;12.80;27.30;;;;;;10448464;28;20264;-72
2021/04/11 03:35:11;;;;;;;4.60;4.20;;;12.70;27.70;;;;;;10450060;28;20307;-72
2021/04/11 03:40:16;;;;;;;4.40;4.10;;;12.70;27.80;;;;;;10448945;28;20300;-72
2021/04/11 03:45:20;;;;;;;5.23;3.97;;;12.70;27.80;;;;;;10447607;28;20381;-72
2021/04/11 03:50:26;;;;;;;6.77;5.03;;;12.70;27.90;;;;;;10448175;28;20221;-72
2021/04/11 03:55:34;;;;;;;4.63;4.20;;;12.60;27.90;;;;;;10448203;28;20666;-72
2021/04/11 04:00:45;;;;;;;5.00;4.60;;;12.70;28.00;;;;;;10448792;28;20307;-72
2021/04/11 04:05:48;;;;;;;4.40;4.00;;;12.70;28.20;;;;;;10446705;28;20257;-72
2021/04/11 04:11:05;;;;;;;6.40;5.13;;;12.70;27.90;;;;;;10447073;28;20331;-72
2021/04/11 04:16:15;;;;;;;6.93;6.10;;;12.70;28.40;;;;;;10404171;28;20696;-72
2021/04/11 04:21:28;;;;;;;4.37;4.03;;;12.70;28.30;;;;;;10448255;28;20736;-72
2021/04/11 04:26:42;;;;;;;4.57;4.07;;;12.60;28.40;;;;;;10444278;28;20270;-72
2021/04/11 04:32:04;;;;;;;4.43;4.00;;;12.60;28.60;;;;;;10446710;28;20249;-72
2021/04/11 04:37:16;;;;;;;4.40;3.90;;;12.60;28.60;;;;;;10447682;28;20217;-72
2021/04/11 04:42:31;;;;;;;4.07;3.70;;;12.40;28.50;;;;;;10445740;28;20697;-72
2021/04/11 04:47:45;;;;;;;5.90;5.17;;;12.40;28.50;;;;;;10442074;28;20324;-72
2021/04/11 04:52:58;;;;;;;5.70;5.20;;;12.30;28.50;;;;;;10447138;28;20603;-72
2021/04/11 04:58:06;;;;;;;4.53;4.13;;;12.30;28.50;;;;;;10447707;28;20289;-72
2021/04/11 05:03:14;;;;;;;4.93;4.10;;;12.20;28.30;;;;;;10448862;28;20328;-72
2021/04/11 05:08:22;;;;;;;4.37;3.97;;;12.10;28.50;;;;;;10448585;28;20312;-72
2021/04/11 05:13:26;;;;;;;5.13;4.60;;;12.00;28.40;;;;;;10446336;28;20320;-72
2021/04/11 05:18:33;;;;;;;6.30;4.27;;;12.00;28.40;;;;;;10448183;28;20235;-72
2021/04/11 05:23:40;;;;;;;5.17;3.90;;;12.00;28.70;;;;;;10443113;28;20233;-72
2021/04/11 05:28:47;;;;;;;5.67;4.40;;;12.00;28.60;;;;;;10444295;28;20314;-72
2021/04/11 05:33:53;;;;;;;5.93;4.43;;;12.00;28.80;;;;;;10440536;28;20232;-72
2021/04/11 05:39:08;;;;;;;4.67;4.27;;;12.00;28.60;;;;;;10443427;28;20328;-72
2021/04/11 05:44:16;;;;;;;5.57;3.73;;;12.00;29.50;;;;;;10443593;28;20327;-72
2021/04/11 05:49:29;;;;;;;3.77;3.47;;;12.10;28.70;;;;;;10448915;28;20324;-72
2021/04/11 05:54:37;;;;;;;4.23;3.87;;;12.10;29.00;;;;;;10500196;22;20687;-75
2021/04/11 05:59:44;;;;;;;4.83;4.43;;;12.20;29.00;;;;;;10496535;28;20302;-73
2021/04/11 06:04:52;;;;;;;5.07;4.67;;;12.20;28.80;;;;;;10455570;28;20312;-73
2021/04/11 06:10:00;;;;;;;5.10;4.50;;;12.30;29.10;;;;;;10451602;28;20217;-74
2021/04/11 06:15:08;;;;;;;4.60;4.20;;;12.30;29.10;;;;;;10453990;28;20251;-73
2021/04/11 06:20:13;;;;;;;5.30;4.80;;;12.30;29.10;;;;;;10451917;28;20279;-73
2021/04/11 06:25:20;;;;;;;4.80;4.30;;;12.40;29.00;;;;;;10454186;28;20324;-74
2021/04/11 06:30:25;;;;;;;5.13;4.63;;;12.50;29.20;;;;;;10451727;28;20640;-74
2021/04/11 06:35:45;;;;;;;5.83;5.33;;;12.50;29.10;;;;;;10454495;28;20265;-74
2021/04/11 06:41:26;;;;;;;5.80;4.17;;;12.60;29.40;;;;;;10450560;28;20808;-74
2021/04/11 06:46:35;;;;;;;4.70;4.30;;;12.70;29.60;;;;;;10434931;28;20219;-74
2021/04/11 06:52:08;;;;;;;4.97;4.40;;;12.80;29.70;;;;;;10450156;28;20311;-74
2021/04/11 06:57:36;;;;;;;5.00;4.50;;;12.90;29.40;;;;;;10452667;28;20228;-73
2021/04/11 07:03:11;;;;;;;4.83;4.43;;;13.00;29.50;;;;;;10443217;28;20236;-74
2021/04/11 07:08:53;;;;;;;4.53;4.13;;;13.10;29.60;;;;;;10446158;28;20768;-74
2021/04/11 07:14:45;;;;;;;5.67;4.33;;;13.30;29.60;;;;;;10453125;28;20239;-74
2021/04/11 07:20:12;;;;;;;3.97;3.47;;;13.50;29.80;;;;;;10442414;28;20227;-74
2021/04/11 07:25:40;;;;;;;3.50;3.20;;;13.70;29.60;;;;;;10451884;28;20229;-74
2021/04/11 07:30:48;;;;;;;3.20;2.90;;;14.00;29.10;;;;;;10432857;28;20229;-74
2021/04/11 07:36:21;;;;;;;3.23;2.93;;;14.30;29.20;;;;;;10428708;28;20229;-74
2021/04/11 07:41:43;;;;;;;3.63;2.90;;;14.60;28.80;;;;;;10424643;28;20307;-74
2021/04/11 07:46:55;;;;;;;3.73;2.80;;;14.90;28.90;;;;;;10429200;28;20773;-78
2021/04/11 07:52:14;;;;;;;2.97;2.67;;;15.20;28.70;;;;;;10421028;28;20693;-77
2021/04/11 07:57:49;;;;;;;2.87;2.67;;;15.50;28.70;;;;;;10427588;28;20244;-77
2021/04/11 08:03:09;;;;;;;3.23;2.70;;;15.70;28.40;;;;;;10435333;28;20252;-79
2021/04/11 08:08:23;;;;;;;2.70;2.50;;;16.10;28.10;;;;;;10433412;28;20868;-75
2021/04/11 08:13:53;;;;;;;2.53;2.30;;;16.30;27.80;;;;;;10439029;28;20316;-75
2021/04/11 08:19:15;;;;;;;2.23;2.00;;;16.70;27.90;;;;;;10441257;28;20236;-75
2021/04/11 08:24:31;;;;;;;3.73;2.80;;;17.00;27.10;;;;;;10432064;28;20308;-75
2021/04/11 08:30:00;;;;;;;3.20;2.77;;;17.30;27.60;;;;;;10449051;28;20258;-75
2021/04/11 08:35:26;;;;;;;4.37;2.27;;;17.70;27.20;;;;;;10439347;28;20237;-74
2021/04/11 08:40:38;;;;;;;3.57;2.90;;;18.00;27.10;;;;;;10449982;28;20303;-77
2021/04/11 08:45:54;;;;;;;3.30;2.97;;;18.40;27.00;;;;;;10438819;28;20268;-75
2021/04/11 08:51:05;;;;;;;3.90;2.20;;;18.70;26.00;;;;;;10450405;28;20256;-72
2021/04/11 08:56:15;;;;;;;2.00;1.80;;;18.90;26.40;;;;;;10449614;28;20649;-75
2021/04/11 09:01:35;;;;;;;2.33;1.70;;;19.20;26.20;;;;;;10450133;28;20323;-74
2021/04/11 09:06:53;;;;;;;5.17;1.90;;;19.50;25.40;;;;;;10436507;28;20299;-77
2021/04/11 09:12:08;;;;;;;1.73;1.63;;;19.70;26.00;;;;;;10443835;28;20247;-72
2021/04/11 09:17:33;;;;;;;2.47;2.20;;;20.00;25.30;;;;;;10449922;28;20253;-72
2021/04/11 09:22:51;;;;;;;2.40;2.20;;;20.30;25.50;;;;;;10434474;28;20640;-72
2021/04/11 09:28:16;;;;;;;2.13;1.93;;;20.50;24.70;;;;;;10445514;28;20244;-76
2021/04/11 09:33:58;;;;;;;1.87;1.70;;;20.70;25.00;;;;;;10447995;28;20237;-76
2021/04/11 09:39:25;;;;;;;4.30;3.10;;;20.90;24.40;;;;;;10426515;28;20319;-76
2021/04/11 09:44:59;;;;;;;3.20;2.63;;;21.10;24.90;;;;;;10444570;28;20714;-75
2021/04/11 09:50:17;;;;;;;2.00;1.90;;;21.20;23.30;;;;;;10450336;28;20339;-75
2021/04/11 09:55:27;;;;;;;2.90;2.30;;;21.40;25.00;;;;;;10451800;28;20264;-75
2021/04/11 10:00:35;;;;;;;2.60;2.40;;;21.50;24.30;;;;;;10450210;28;20879;-75
2021/04/11 10:05:50;;;;;;;2.27;2.00;;;21.70;23.50;;;;;;10451488;28;20308;-73
2021/04/11 10:11:06;;;;;;;1.80;1.70;;;21.80;23.00;;;;;;10453675;28;20312;-74
2021/04/11 10:16:21;;;;;;;2.17;1.97;;;21.90;22.60;;;;;;10459878;28;20265;-74
2021/04/11 10:21:32;;;;;;;2.30;2.10;;;22.00;22.20;;;;;;10449222;28;20628;-73
2021/04/11 10:26:41;;;;;;;2.23;2.00;;;22.10;22.00;;;;;;10453661;28;20776;-74
2021/04/11 10:31:53;;;;;;;2.50;2.00;;;22.20;22.10;;;;;;10453275;28;20243;-74
2021/04/11 10:37:06;;;;;;;5.10;2.10;;;22.40;22.00;;;;;;10449655;28;20282;-74
2021/04/11 10:42:21;;;;;;;2.33;2.13;;;22.60;21.80;;;;;;10451186;28;20243;-73
2021/04/11 10:47:44;;;;;;;3.27;2.10;;;22.70;22.00;;;;;;10447789;28;20225;-72
2021/04/11 10:53:22;;;;;;;1.70;1.60;;;22.80;21.20;;;;;;10444788;28;20249;-71
2021/04/11 10:58:41;;;;;;;1.77;1.67;;;23.00;21.50;;;;;;10438716;28;20662;-71
2021/04/11 11:04:19;;;;;;;1.70;1.60;;;23.00;20.60;;;;;;10453160;28;20252;-77
2021/04/11 11:09:29;;;;;;;1.50;1.40;;;22.90;19.50;;;;;;10446222;28;20304;-72
2021/04/11 11:15:11;;;;;;;1.60;1.50;;;23.00;20.50;;;;;;10447254;28;20279;-72
2021/04/11 11:20:23;;;;;;;1.40;1.30;;;23.00;20.30;;;;;;10388748;28;20761;-74
2021/04/11 11:25:43;;;;;;;1.67;1.37;;;23.00;19.90;;;;;;10443935;28;20260;-75
2021/04/11 11:31:06;;;;;;;3.10;1.43;;;23.00;19.70;;;;;;10439315;28;20225;-76
2021/04/11 11:36:21;;;;;;;1.17;1.17;;;23.00;19.10;;;;;;10444600;28;20244;-75
2021/04/11 11:41:29;;;;;;;1.40;1.10;;;23.10;19.90;;;;;;10448790;28;20282;-72
2021/04/11 11:46:42;;;;;;;1.30;1.20;;;23.10;19.00;;;;;;10449191;28;20649;-72
2021/04/11 11:52:03;;;;;;;1.30;1.20;;;23.10;19.00;;;;;;10483074;22;20239;-71
2021/04/11 11:57:18;;;;;;;1.63;1.17;;;23.10;18.70;;;;;;10451558;28;20754;-70
2021/04/11 12:02:32;;;;;;;1.50;1.40;;;23.10;19.40;;;;;;10446023;28;20694;-73
2021/04/11 12:07:41;;;;;;;1.30;1.30;;;23.10;19.30;;;;;;10449910;28;20249;-71
2021/04/11 12:12:53;;;;;;;1.43;1.33;;;23.10;19.10;;;;;;10451795;28;20312;-70
2021/04/11 12:18:04;;;;;;;1.40;1.30;;;23.10;19.60;;;;;;10451339;28;20734;-70
2021/04/11 12:23:13;;;;;;;1.53;1.43;;;23.10;19.10;;;;;;10450869;28;20304;-70
2021/04/11 12:28:25;;;;;;;2.73;1.23;;;23.20;19.50;;;;;;10450368;28;20716;-71
2021/04/11 12:33:34;;;;;;;1.60;1.50;;;23.30;19.00;;;;;;10450417;28;20264;-71
2021/04/11 12:38:41;;;;;;;1.70;1.60;;;23.30;18.90;;;;;;10450786;28;20298;-70
2021/04/11 12:43:53;;;;;;;1.60;1.50;;;23.40;18.70;;;;;;10447334;28;20256;-71
2021/04/11 12:49:03;;;;;;;1.50;1.40;;;23.40;18.50;;;;;;10456544;28;20456;-70
2021/04/11 12:54:12;;;;;;;1.80;1.70;;;23.40;18.70;;;;;;10450130;28;20233;-71
2021/04/11 12:59:21;;;;;;;1.80;1.70;;;23.40;18.70;;;;;;10445782;28;20317;-70
2021/04/11 13:04:30;;;;;;;2.03;1.93;;;23.50;18.50;;;;;;10449960;28;20290;-71
2021/04/11 13:09:54;;;;;;;2.27;2.03;;;23.40;18.20;;;;;;10444633;28;20244;-71
2021/04/11 13:15:04;;;;;;;1.90;1.80;;;23.30;18.60;;;;;;10446917;28;20252;-72
2021/04/11 13:20:15;;;;;;;1.93;1.83;;;23.20;18.50;;;;;;10446921;28;20665;-71
2021/04/11 13:25:29;;;;;;;2.20;2.00;;;23.20;18.60;;;;;;10448493;28;20244;-70
2021/04/11 13:30:36;;;;;;;1.90;1.70;;;23.20;18.90;;;;;;10445935;28;20221;-71
2021/04/11 13:35:44;;;;;;;1.63;1.53;;;23.30;18.70;;;;;;10447428;28;20225;-71
2021/04/11 13:40:47;;;;;;;3.40;2.40;;;23.20;19.00;;;;;;10448440;28;20312;-71
2021/04/11 13:46:08;;;;;;;2.20;2.10;;;23.20;18.80;;;;;;10443090;28;20220;-71
2021/04/11 13:51:28;;;;;;;2.17;2.00;;;23.20;18.40;;;;;;10443731;28;20221;-71
2021/04/11 13:56:50;;;;;;;2.53;2.30;;;23.20;18.60;;;;;;10441759;28;20255;-71
2021/04/11 14:01:57;;;;;;;2.27;2.07;;;23.30;18.90;;;;;;10445314;28;20312;-71
2021/04/11 14:07:01;;;;;;;2.63;2.43;;;23.40;18.30;;;;;;10436301;28;20743;-71
2021/04/11 14:12:08;;;;;;;2.30;2.20;;;23.40;18.30;;;;;;10454906;28;20363;-71
2021/04/11 14:17:20;;;;;;;3.10;2.90;;;23.40;18.50;;;;;;10452724;28;20262;-70
2021/04/11 14:22:30;;;;;;;2.77;2.20;;;23.40;18.20;;;;;;10455185;28;20290;-71
2021/04/11 14:27:39;;;;;;;2.33;1.90;;;23.40;18.20;;;;;;10456914;28;20752;-71
2021/04/11 14:32:46;;;;;;;1.80;1.70;;;23.40;18.40;;;;;;10450424;28;20237;-70
2021/04/11 14:37:54;;;;;;;2.40;2.20;;;23.40;18.40;;;;;;10453774;28;20244;-72
2021/04/11 14:42:59;;;;;;;2.40;2.20;;;23.40;18.20;;;;;;10448925;28;20260;-71
2021/04/11 14:48:07;;;;;;;2.17;1.97;;;23.50;18.20;;;;;;10447985;28;20252;-71
2021/04/11 14:53:20;;;;;;;2.57;2.30;;;23.50;18.20;;;;;;10453109;28;20320;-72
2021/04/11 14:58:28;;;;;;;2.10;2.00;;;23.60;18.20;;;;;;10448687;28;20257;-72
2021/04/11 15:04:01;;;;;;;3.60;3.30;;;23.60;17.60;;;;;;10452430;28;20315;-71
2021/04/11 15:09:17;;;;;;;2.50;2.23;;;23.60;17.80;;;;;;10443246;28;20834;-72
2021/04/11 15:14:24;;;;;;;3.40;1.70;;;23.60;17.60;;;;;;10434642;28;20253;-72
2021/04/11 15:19:38;;;;;;;1.50;1.40;;;23.70;17.70;;;;;;10452090;28;20223;-71
2021/04/11 15:24:46;;;;;;;1.50;1.40;;;23.70;17.70;;;;;;10442164;28;20710;-72
2021/04/11 15:29:53;;;;;;;1.80;1.70;;;23.80;17.40;;;;;;10449543;28;20264;-73
2021/04/11 15:34:59;;;;;;;1.70;1.60;;;23.80;17.50;;;;;;10449072;28;20878;-71
2021/04/11 15:40:27;;;;;;;1.67;1.57;;;23.80;17.50;;;;;;10447511;28;20279;-72
2021/04/11 15:45:40;;;;;;;1.60;1.50;;;23.80;17.70;;;;;;10444905;28;20228;-72
2021/04/11 15:51:00;;;;;;;1.50;1.40;;;23.70;17.10;;;;;;10459103;28;20728;-72
2021/04/11 15:56:14;;;;;;;1.57;1.47;;;23.70;17.70;;;;;;10444874;28;20233;-71
2021/04/11 16:01:22;;;;;;;1.47;1.37;;;23.70;17.30;;;;;;10446526;28;20320;-71
2021/04/11 16:06:41;;;;;;;1.20;1.20;;;23.70;16.80;;;;;;10451428;28;20591;-72
2021/04/11 16:12:10;;;;;;;1.20;1.20;;;23.70;17.00;;;;;;10445877;28;20274;-72
2021/04/11 16:17:25;;;;;;;1.40;1.30;;;23.60;16.70;;;;;;10440290;28;20315;-74
2021/04/11 16:22:45;;;;;;;1.40;1.30;;;23.60;16.90;;;;;;10450130;28;20658;-72
2021/04/11 16:28:16;;;;;;;1.00;0.90;;;23.60;17.10;;;;;;10454004;28;20256;-72
2021/04/11 16:33:32;;;;;;;0.90;0.90;;;23.70;17.20;;;;;;10435217;28;20313;-71
2021/04/11 16:38:46;;;;;;;0.80;0.80;;;23.60;16.60;;;;;;10449104;28;20633;-71
2021/04/11 16:43:51;;;;;;;1.00;0.90;;;23.50;16.50;;;;;;10441189;28;20310;-71
2021/04/11 16:48:56;;;;;;;0.90;0.90;;;23.50;16.90;;;;;;10439698;28;20233;-72
2021/04/11 16:54:06;;;;;;;0.90;0.80;;;23.50;16.90;;;;;;10449089;28;20267;-72
2021/04/11 16:59:15;;;;;;;0.90;0.90;;;23.50;16.40;;;;;;10446464;28;20736;-74
2021/04/11 17:04:27;;;;;;;1.10;1.00;;;23.50;16.60;;;;;;10520723;22;20254;-71
2021/04/11 17:09:37;;;;;;;1.20;1.10;;;23.50;16.40;;;;;;10533236;28;20224;-72
2021/04/11 17:14:54;;;;;;;2.70;2.50;;;23.50;16.40;;;;;;10503038;28;20244;-71
2021/04/11 17:20:11;;;;;;;6.80;6.30;;;23.50;16.60;;;;;;10493673;28;20220;-71
2021/04/11 17:25:17;;;;;;;2.30;2.20;;;23.50;16.50;;;;;;10493809;28;20650;-72
2021/04/11 17:30:26;;;;;;;2.90;1.87;;;23.50;16.70;;;;;;10482839;28;20235;-72
2021/04/11 17:35:33;;;;;;;2.30;2.10;;;23.40;16.50;;;;;;10481490;28;20249;-72
2021/04/11 17:40:38;;;;;;;2.53;1.83;;;23.30;16.70;;;;;;10488817;28;20238;-72
2021/04/11 17:45:47;;;;;;;2.00;1.90;;;23.20;17.40;;;;;;10491295;28;20258;-72
2021/04/11 17:51:13;;;;;;;1.90;1.40;;;23.20;17.30;;;;;;10500196;28;20232;-72
2021/04/11 17:56:28;;;;;;;1.60;1.50;;;23.20;17.30;;;;;;10496370;28;20286;-72
2021/04/11 18:01:47;;;;;;;1.53;1.43;;;23.10;17.20;;;;;;10503442;28;20591;-71
2021/04/11 18:07:00;;;;;;;1.77;1.60;;;23.00;17.20;;;;;;10503151;28;20228;-71
2021/04/11 18:12:13;;;;;;;1.33;1.23;;;22.80;17.20;;;;;;10502783;28;20278;-71
2021/04/11 18:17:21;;;;;;;1.90;1.53;;;22.70;17.70;;;;;;10496564;28;20312;-71
2021/04/11 18:22:30;;;;;;;2.50;1.50;;;22.60;18.00;;;;;;10498727;28;20650;-71
2021/04/11 18:27:48;;;;;;;1.80;1.70;;;22.40;17.90;;;;;;10493449;28;20626;-71
2021/04/11 18:32:59;;;;;;;4.03;3.50;;;22.30;18.10;;;;;;10494005;28;20670;-71
2021/04/11 18:38:10;;;;;;;10.33;9.37;;;22.20;17.90;;;;;;10501209;28;20227;-71
2021/04/11 18:43:27;;;;;;;10.50;9.50;;;22.00;18.70;;;;;;10515452;28;20230;-71
2021/04/11 18:48:56;;;;;;;7.40;6.80;;;21.80;18.10;;;;;;10513831;28;20223;-71
2021/04/11 18:54:10;;;;;;;7.00;5.93;;;21.70;18.10;;;;;;10506113;28;20347;-71
2021/04/11 18:59:58;;;;;;;5.30;4.80;;;21.40;18.20;;;;;;10509490;28;20258;-71
2021/04/11 19:05:12;;;;;;;5.83;4.30;;;21.20;18.30;;;;;;10510709;28;20238;-71
2021/04/11 19:10:44;;;;;;;3.50;3.10;;;21.10;18.50;;;;;;10511558;28;20246;-71
2021/04/11 19:15:53;;;;;;;3.27;2.73;;;20.90;18.30;;;;;;10503683;28;20242;-71
2021/04/11 19:21:21;;;;;;;3.00;1.87;;;20.60;18.40;;;;;;10512659;28;20256;-71
2021/04/11 19:26:57;;;;;;;3.17;2.87;;;20.40;18.50;;;;;;10508549;28;20667;-71
2021/04/11 19:32:41;;;;;;;8.10;7.30;;;20.10;18.80;;;;;;10497970;28;20236;-73
2021/04/11 19:38:00;;;;;;;7.43;6.77;;;19.90;18.80;;;;;;10484043;28;20228;-74
2021/04/11 19:43:32;;;;;;;8.03;6.80;;;19.50;19.20;;;;;;10514943;28;20230;-73
2021/04/11 19:48:58;;;;;;;5.00;4.60;;;19.10;19.50;;;;;;10489293;28;20216;-71
2021/04/11 19:54:07;;;;;;;4.63;4.23;;;18.80;19.60;;;;;;10486685;28;20231;-71
2021/04/11 19:59:42;;;;;;;2.30;2.10;;;18.70;19.60;;;;;;10498178;28;20946;-71
2021/04/11 20:04:57;;;;;;;2.50;1.80;;;18.50;20.10;;;;;;10499398;28;20325;-71
2021/04/11 20:10:25;;;;;;;2.23;1.70;;;18.30;22.00;;;;;;10489933;28;20232;-71
2021/04/11 20:15:51;;;;;;;3.43;1.70;;;18.20;23.30;;;;;;10500704;28;20314;-71
2021/04/11 20:21:02;;;;;;;3.40;1.60;;;18.00;24.00;;;;;;10484685;28;20303;-71
2021/04/11 20:26:35;;;;;;;2.70;1.80;;;17.90;23.90;;;;;;10487539;28;20306;-71
2021/04/11 20:32:07;;;;;;;2.03;1.77;;;17.80;24.20;;;;;;10487101;28;20233;-70
2021/04/11 20:37:44;;;;;;;2.03;1.77;;;17.70;25.40;;;;;;10504823;28;20223;-71
2021/04/11 20:43:07;;;;;;;1.90;1.80;;;17.50;25.20;;;;;;10461746;28;20252;-71
2021/04/11 20:48:34;;;;;;;2.60;2.10;;;17.40;25.50;;;;;;10499072;28;20248;-71
2021/04/11 20:54:12;;;;;;;2.13;1.93;;;17.40;25.30;;;;;;10493139;28;20654;-71
2021/04/11 20:59:50;;;;;;;2.20;2.00;;;17.30;25.70;;;;;;10512251;28;20222;-71
2021/04/11 21:05:07;;;;;;;3.20;2.30;;;17.20;25.90;;;;;;10506332;28;20247;-71
2021/04/11 21:10:22;;;;;;;2.80;2.47;;;17.20;27.00;;;;;;10505045;28;20679;-71
2021/04/11 21:15:50;;;;;;;2.43;2.20;;;17.10;26.90;;;;;;10503740;28;20656;-71
2021/04/11 21:21:13;;;;;;;2.10;2.00;;;16.90;27.60;;;;;;10491382;28;20236;-71
2021/04/11 21:26:27;;;;;;;2.57;1.93;;;16.70;26.90;;;;;;10506399;28;20258;-71
2021/04/11 21:31:42;;;;;;;2.17;1.73;;;16.60;27.40;;;;;;10493583;28;20259;-71
2021/04/11 21:36:51;;;;;;;2.00;1.90;;;16.50;27.40;;;;;;10486070;28;20243;-71
2021/04/11 21:41:58;;;;;;;2.00;1.90;;;16.50;26.60;;;;;;10489452;28;20240;-71
2021/04/11 21:47:06;;;;;;;1.50;1.40;;;16.40;26.90;;;;;;10505242;28;20928;-71
2021/04/11 21:52:27;;;;;;;1.50;1.40;;;16.30;27.10;;;;;;10493734;28;20369;-71
2021/04/11 21:58:12;;;;;;;1.23;1.13;;;16.20;27.50;;;;;;10494082;28;20626;-71
2021/04/11 22:03:22;;;;;;;1.30;1.20;;;16.10;27.80;;;;;;10498586;28;20720;-71
2021/04/11 22:08:41;;;;;;;0.87;0.87;;;16.00;27.00;;;;;;10518633;28;20299;-71
2021/04/11 22:13:58;;;;;;;1.57;0.80;;;15.90;27.80;;;;;;10505653;28;20322;-71
2021/04/11 22:19:08;;;;;;;2.50;0.87;;;15.80;27.40;;;;;;10505706;28;20306;-71
2021/04/11 22:24:19;;;;;;;0.80;0.80;;;15.70;27.00;;;;;;10491662;28;20753;-71
2021/04/11 22:29:27;;;;;;;0.70;0.70;;;15.70;27.30;;;;;;10486553;28;20755;-71
2021/04/11 22:34:33;;;;;;;0.70;0.70;;;15.60;26.80;;;;;;10504803;28;20310;-71
2021/04/11 22:39:38;;;;;;;0.80;0.80;;;15.60;26.70;;;;;;10506736;28;20303;-71
2021/04/11 22:44:54;;;;;;;0.70;0.70;;;15.60;26.90;;;;;;10495235;28;20232;-71
2021/04/11 22:50:04;;;;;;;0.70;0.70;;;15.50;27.50;;;;;;10506991;28;20715;-71
2021/04/11 22:55:23;;;;;;;0.90;0.90;;;15.50;27.50;;;;;;10512406;28;20247;-71
2021/04/11 23:00:31;;;;;;;1.00;1.00;;;15.50;27.90;;;;;;10516995;28;20250;-71
2021/04/11 23:05:44;;;;;;;1.00;1.00;;;15.40;27.50;;;;;;10489786;28;20307;-71
2021/04/11 23:11:04;;;;;;;1.13;1.10;;;15.30;27.60;;;;;;10490816;28;20312;-71
2021/04/11 23:16:27;;;;;;;1.10;1.10;;;15.30;27.50;;;;;;10489962;28;20310;-71
2021/04/11 23:21:39;;;;;;;1.10;1.10;;;15.30;28.20;;;;;;10493074;28;20224;-71
2021/04/11 23:26:50;;;;;;;1.07;1.07;;;15.30;27.80;;;;;;10497122;28;20259;-71
2021/04/11 23:31:57;;;;;;;1.10;1.10;;;15.30;28.50;;;;;;10500426;28;20308;-71
2021/04/11 23:37:10;;;;;;;0.90;0.90;;;15.40;27.80;;;;;;10495186;28;20331;-71
2021/04/11 23:42:26;;;;;;;1.07;1.07;;;15.40;27.70;;;;;;10505559;28;20243;-71
2021/04/11 23:47:36;;;;;;;0.90;0.90;;;15.40;28.00;;;;;;10493451;28;20330;-71
2021/04/11 23:52:44;;;;;;;0.93;0.93;;;15.40;28.50;;;;;;10498532;28;20220;-71
2021/04/11 23:57:51;;;;;;;1.00;1.00;;;15.40;27.80;;;;;;10492772;28;20582;-70
